createdAt,value
2019-03-13T00:02:03.954Z,82.58
2019-03-13T00:04:32.754Z,82.40
2019-03-13T00:07:01.450Z,82.46
2019-03-13T00:09:30.150Z,83.10
2019-03-13T00:11:58.867Z,83.26
2019-03-13T00:14:27.799Z,83.29
2019-03-13T00:16:56.479Z,83.18
2019-03-13T00:19:25.512Z,83.02
2019-03-13T00:21:54.243Z,82.96
2019-03-13T00:24:23.313Z,83.41
2019-03-13T00:26:52.297Z,82.89
2019-03-13T00:29:21.351Z,83.34
2019-03-13T00:31:50.388Z,81.91
2019-03-13T00:34:19.073Z,82.56
2019-03-13T00:36:48.067Z,82.78
2019-03-13T00:39:16.757Z,83.48
2019-03-13T00:41:45.861Z,82.80
2019-03-13T00:44:14.530Z,80.22
2019-03-13T00:46:43.215Z,79.96
2019-03-13T00:49:11.920Z,80.65
2019-03-13T00:51:40.576Z,79.98
2019-03-13T00:54:09.306Z,80.33
2019-03-13T00:56:38.051Z,79.32
2019-03-13T00:59:07.241Z,79.57
2019-03-13T01:01:44.033Z,78.93
2019-03-13T01:04:17.873Z,78.83
2019-03-13T01:06:50.517Z,77.67
2019-03-13T01:09:19.508Z,78.27
2019-03-13T01:11:48.199Z,78.11
2019-03-13T01:14:17.142Z,78.37
2019-03-13T01:16:46.483Z,77.75
2019-03-13T01:19:15.245Z,78.35
2019-03-13T01:21:43.948Z,78.12
2019-03-13T01:24:12.775Z,78.68
2019-03-13T01:26:41.472Z,78.23
2019-03-13T01:29:10.635Z,78.03
2019-03-13T01:31:49.544Z,77.61
2019-03-13T01:34:43.093Z,77.42
2019-03-13T01:37:12.122Z,77.37
2019-03-13T01:39:40.817Z,76.82
2019-03-13T01:42:09.800Z,76.68
2019-03-13T01:44:40.719Z,76.48
2019-03-13T01:47:08.915Z,76.79
2019-03-13T01:49:37.631Z,76.62
2019-03-13T01:52:06.591Z,76.25
2019-03-13T01:54:35.585Z,76.21
2019-03-13T01:57:04.682Z,75.82
2019-03-13T01:59:33.388Z,76.19
2019-03-13T02:02:02.070Z,76.43
2019-03-13T02:04:31.146Z,76.09
2019-03-13T02:07:00.216Z,76.87
2019-03-13T02:09:29.496Z,75.28
2019-03-13T02:11:58.273Z,75.66
2019-03-13T02:14:27.299Z,75.55
2019-03-13T02:16:56.020Z,75.05
2019-03-13T02:19:26.089Z,74.64
2019-03-13T02:21:55.141Z,75.49
2019-03-13T02:24:23.859Z,75.36
2019-03-13T02:26:52.550Z,74.49
2019-03-13T02:29:22.050Z,75.26
2019-03-13T02:31:50.757Z,74.73
2019-03-13T02:34:19.804Z,75.14
2019-03-13T02:36:48.503Z,74.72
2019-03-13T02:39:17.208Z,75.24
2019-03-13T02:41:46.039Z,74.38
2019-03-13T02:44:15.089Z,73.69
2019-03-13T02:46:43.782Z,74.20
2019-03-13T02:49:12.955Z,74.33
2019-03-13T02:51:41.661Z,74.80
2019-03-13T02:54:10.349Z,74.43
2019-03-13T02:56:39.295Z,74.69
2019-03-13T02:59:07.993Z,75.13
2019-03-13T03:01:41.855Z,74.92
2019-03-13T03:04:12.039Z,74.70
2019-03-13T03:06:40.732Z,74.40
2019-03-13T03:09:09.692Z,74.46
2019-03-13T03:11:38.586Z,74.43
2019-03-13T03:14:07.545Z,74.52
2019-03-13T03:16:36.477Z,74.55
2019-03-13T03:19:05.561Z,74.62
2019-03-13T03:21:34.269Z,74.48
2019-03-13T03:24:03.046Z,74.23
2019-03-13T03:26:31.730Z,74.27
2019-03-13T03:29:00.400Z,74.38
2019-03-13T03:31:29.637Z,73.93
2019-03-13T03:34:03.236Z,74.13
2019-03-13T03:36:32.159Z,73.50
2019-03-13T03:39:01.405Z,74.05
2019-03-13T03:41:30.353Z,73.80
2019-03-13T03:43:59.227Z,73.08
2019-03-13T03:46:27.876Z,72.63
2019-03-13T03:48:56.887Z,73.15
2019-03-13T03:51:25.578Z,72.64
2019-03-13T03:53:54.750Z,72.62
2019-03-13T03:56:23.596Z,72.35
2019-03-13T03:58:52.618Z,72.81
2019-03-13T04:01:21.310Z,72.79
2019-03-13T04:03:50.007Z,72.48
2019-03-13T04:06:18.996Z,73.08
2019-03-13T04:08:48.173Z,72.32
2019-03-13T04:11:17.381Z,71.53
2019-03-13T04:13:46.105Z,71.82
2019-03-13T04:16:14.806Z,71.89
2019-03-13T04:18:43.481Z,71.48
2019-03-13T04:21:12.421Z,71.64
2019-03-13T04:23:41.108Z,72.08
2019-03-13T04:26:12.710Z,71.69
2019-03-13T04:28:40.240Z,71.07
2019-03-13T04:31:08.914Z,70.30
2019-03-13T04:33:37.595Z,70.33
2019-03-13T04:36:06.537Z,70.21
2019-03-13T04:38:35.218Z,70.78
2019-03-13T04:41:04.267Z,69.99
2019-03-13T04:43:32.967Z,69.98
2019-03-13T04:46:01.899Z,70.34
2019-03-13T04:48:30.851Z,69.46
2019-03-13T04:50:59.566Z,69.76
2019-03-13T04:53:28.269Z,69.32
2019-03-13T04:55:57.215Z,68.73
2019-03-13T04:58:26.178Z,68.71
2019-03-13T05:00:54.898Z,69.20
2019-03-13T05:03:23.586Z,69.31
2019-03-13T05:06:01.686Z,69.09
2019-03-13T05:08:54.746Z,69.38
2019-03-13T05:11:23.542Z,68.84
2019-03-13T05:13:52.477Z,69.11
2019-03-13T05:16:21.178Z,69.96
2019-03-13T05:18:49.945Z,69.59
2019-03-13T05:21:18.651Z,69.00
2019-03-13T05:23:49.442Z,69.07
2019-03-13T05:26:18.205Z,69.95
2019-03-13T05:28:46.914Z,69.23
2019-03-13T05:31:15.868Z,69.05
2019-03-13T05:33:44.894Z,69.19
2019-03-13T05:36:16.624Z,68.69
2019-03-13T05:38:45.254Z,69.17
2019-03-13T05:41:13.968Z,68.80
2019-03-13T05:43:42.674Z,69.49
2019-03-13T05:46:11.388Z,69.27
2019-03-13T05:48:40.097Z,69.75
2019-03-13T05:51:09.071Z,68.33
2019-03-13T05:53:38.067Z,68.57
2019-03-13T05:56:07.078Z,68.96
2019-03-13T05:58:36.059Z,68.53
2019-03-13T06:01:04.893Z,68.44
2019-03-13T06:03:33.592Z,69.21
2019-03-13T06:06:02.267Z,68.48
2019-03-13T06:08:31.016Z,69.39
2019-03-13T06:10:59.730Z,69.12
2019-03-13T06:13:28.679Z,68.91
2019-03-13T06:15:57.632Z,68.92
2019-03-13T06:18:26.625Z,67.86
2019-03-13T06:20:55.648Z,68.48
2019-03-13T06:23:24.352Z,68.94
2019-03-13T06:25:53.054Z,69.86
2019-03-13T06:28:22.288Z,69.49
2019-03-13T06:30:51.302Z,69.46
2019-03-13T06:33:20.017Z,69.24
2019-03-13T06:35:49.216Z,71.09
2019-03-13T06:38:18.142Z,70.14
2019-03-13T06:40:46.918Z,70.48
2019-03-13T06:43:15.918Z,69.79
2019-03-13T06:45:44.621Z,70.70
2019-03-13T06:48:13.567Z,69.46
2019-03-13T06:50:42.499Z,69.98
2019-03-13T06:53:11.530Z,69.69
2019-03-13T06:55:40.242Z,69.86
2019-03-13T06:58:09.624Z,69.77
2019-03-13T07:00:48.722Z,69.32
2019-03-13T07:03:45.995Z,70.10
2019-03-13T07:06:30.975Z,71.01
2019-03-13T07:09:18.170Z,70.72
2019-03-13T07:12:04.839Z,71.29
2019-03-13T07:14:42.462Z,70.94
2019-03-13T07:17:30.471Z,71.21
2019-03-13T07:20:16.172Z,71.88
2019-03-13T07:22:54.088Z,71.50
2019-03-13T07:25:37.826Z,70.65
2019-03-13T07:28:28.638Z,70.88
2019-03-13T07:31:09.774Z,69.95
2019-03-13T07:33:56.574Z,70.87
2019-03-13T07:36:44.324Z,69.96
2019-03-13T07:39:19.993Z,69.92
2019-03-13T07:41:56.434Z,68.75
2019-03-13T07:44:42.242Z,67.94
2019-03-13T07:47:48.387Z,68.43
2019-03-13T07:50:34.380Z,68.68
2019-03-13T07:53:20.421Z,69.26
2019-03-13T07:55:59.349Z,69.74
2019-03-13T07:58:40.196Z,69.68
2019-03-13T08:01:19.461Z,69.79
2019-03-13T08:03:53.317Z,68.60
2019-03-13T08:06:41.093Z,67.92
2019-03-13T08:09:27.721Z,68.89
2019-03-13T08:12:12.003Z,67.10
2019-03-13T08:14:59.981Z,68.49
2019-03-13T08:17:43.911Z,67.78
2019-03-13T08:20:40.713Z,68.25
2019-03-13T08:23:27.284Z,68.52
2019-03-13T08:26:03.814Z,68.71
2019-03-13T08:28:42.235Z,68.02
2019-03-13T08:31:16.657Z,68.14
2019-03-13T08:34:12.052Z,68.23
2019-03-13T08:36:59.749Z,68.52
2019-03-13T08:39:36.418Z,68.24
2019-03-13T08:42:23.778Z,69.97
2019-03-13T08:45:07.628Z,69.05
2019-03-13T08:47:45.890Z,69.04
2019-03-13T08:50:25.170Z,68.07
2019-03-13T08:53:11.646Z,69.20
2019-03-13T08:56:12.162Z,67.63
2019-03-13T08:58:54.562Z,68.24
2019-03-13T09:01:41.241Z,68.81
2019-03-13T09:04:43.988Z,69.53
2019-03-13T09:07:24.208Z,70.79
2019-03-13T09:10:07.291Z,70.06
2019-03-13T09:12:48.820Z,70.47
2019-03-13T09:15:24.331Z,70.02
2019-03-13T09:18:10.413Z,70.44
2019-03-13T09:20:57.022Z,70.77
2019-03-13T09:23:56.985Z,70.22
2019-03-13T09:26:53.557Z,70.93
2019-03-13T09:29:53.655Z,69.28
2019-03-13T09:32:44.701Z,69.61
2019-03-13T09:35:34.181Z,71.05
2019-03-13T09:38:11.655Z,73.53
2019-03-13T09:40:58.942Z,73.71
2019-03-13T09:43:45.449Z,73.99
2019-03-13T09:46:48.435Z,75.52
2019-03-13T09:49:51.524Z,76.37
2019-03-13T09:52:31.117Z,76.45
2019-03-13T09:55:09.168Z,74.70
2019-03-13T09:57:50.387Z,75.25
2019-03-13T10:00:29.738Z,74.97
2019-03-13T10:03:16.608Z,73.83
2019-03-13T10:06:10.476Z,73.50
2019-03-13T10:08:58.764Z,72.63
2019-03-13T10:11:42.189Z,72.62
2019-03-13T10:14:20.725Z,72.55
2019-03-13T10:17:17.928Z,71.74
2019-03-13T10:20:06.013Z,70.94
2019-03-13T10:22:50.059Z,69.92
2019-03-13T10:25:31.391Z,70.20
2019-03-13T10:28:05.427Z,69.94
2019-03-13T10:31:02.164Z,68.63
2019-03-13T10:33:42.912Z,69.53
2019-03-13T10:36:39.452Z,69.25
2019-03-13T10:39:17.705Z,69.63
2019-03-13T10:42:10.203Z,69.03
2019-03-13T10:44:44.492Z,68.49
2019-03-13T10:47:24.616Z,68.79
2019-03-13T10:50:02.327Z,68.41
2019-03-13T10:52:50.292Z,68.94
2019-03-13T10:55:43.982Z,68.68
2019-03-13T10:58:31.717Z,69.25
2019-03-13T11:01:22.302Z,70.41
2019-03-13T11:03:59.311Z,70.64
2019-03-13T11:06:54.799Z,71.94
2019-03-13T11:09:26.719Z,72.12
2019-03-13T11:12:29.564Z,71.37
2019-03-13T11:15:03.815Z,71.61
2019-03-13T11:17:43.822Z,72.35
2019-03-13T11:20:22.898Z,72.43
2019-03-13T11:23:01.103Z,74.04
2019-03-13T11:25:48.795Z,73.54
2019-03-13T11:28:28.881Z,74.13
2019-03-13T11:31:24.502Z,74.10
2019-03-13T11:34:12.224Z,76.37
2019-03-13T11:36:58.785Z,77.71
2019-03-13T11:39:36.118Z,77.70
2019-03-13T11:42:16.019Z,77.39
2019-03-13T11:45:15.984Z,78.37
2019-03-13T11:48:04.315Z,77.13
2019-03-13T11:51:00.461Z,76.57
2019-03-13T11:53:41.745Z,77.51
2019-03-13T11:56:29.085Z,78.12
2019-03-13T11:59:09.143Z,77.21
2019-03-13T12:01:55.913Z,76.34
2019-03-13T12:04:42.503Z,76.40
2019-03-13T12:07:33.569Z,75.87
2019-03-13T12:10:11.350Z,77.30
2019-03-13T12:13:10.359Z,77.15
2019-03-13T12:15:56.316Z,77.31
2019-03-13T12:18:30.135Z,76.98
2019-03-13T12:21:17.123Z,76.67
2019-03-13T12:23:52.697Z,76.23
2019-03-13T12:26:31.608Z,75.12
2019-03-13T12:29:09.775Z,75.53
2019-03-13T12:31:54.832Z,74.15
2019-03-13T12:34:29.819Z,73.43
2019-03-13T12:37:16.326Z,73.63
2019-03-13T12:40:22.578Z,73.71
2019-03-13T12:43:10.320Z,72.01
2019-03-13T12:45:43.936Z,72.19
2019-03-13T12:48:35.066Z,71.83
2019-03-13T12:51:20.449Z,73.10
2019-03-13T12:54:06.894Z,74.14
2019-03-13T12:56:56.404Z,72.60
2019-03-13T12:59:37.376Z,72.38
2019-03-13T13:02:28.593Z,71.78
2019-03-13T13:05:15.194Z,72.38
2019-03-13T13:08:01.579Z,72.49
2019-03-13T13:10:48.826Z,73.11
2019-03-13T13:13:33.828Z,72.42
2019-03-13T13:16:16.218Z,72.28
2019-03-13T13:18:53.409Z,71.59
2019-03-13T13:21:22.664Z,71.66
2019-03-13T13:23:51.940Z,72.03
2019-03-13T13:26:20.812Z,72.57
2019-03-13T13:28:49.824Z,72.15
2019-03-13T13:31:18.916Z,71.79
2019-03-13T13:33:47.662Z,71.85
2019-03-13T13:36:16.387Z,72.61
2019-03-13T13:38:45.155Z,72.41
2019-03-13T13:41:14.272Z,72.02
2019-03-13T13:43:43.081Z,71.55
2019-03-13T13:46:21.020Z,72.12
2019-03-13T13:48:49.778Z,74.49
2019-03-13T13:51:18.489Z,75.00
2019-03-13T13:53:47.185Z,75.59
2019-03-13T13:56:15.977Z,76.59
2019-03-13T13:58:44.932Z,77.19
2019-03-13T14:01:13.713Z,78.41
2019-03-13T14:03:42.645Z,79.27
2019-03-13T14:06:11.329Z,78.80
2019-03-13T14:08:40.045Z,79.79
2019-03-13T14:11:19.622Z,80.64
2019-03-13T14:13:48.640Z,80.76
2019-03-13T14:16:17.342Z,81.20
2019-03-13T14:18:46.011Z,81.41
2019-03-13T14:21:15.072Z,80.91
2019-03-13T14:23:44.050Z,81.66
2019-03-13T14:26:12.834Z,81.58
2019-03-13T14:28:41.542Z,81.42
2019-03-13T14:31:10.259Z,82.32
2019-03-13T14:33:39.300Z,82.12
2019-03-13T14:36:08.001Z,82.59
2019-03-13T14:38:38.474Z,80.60
2019-03-13T14:41:07.525Z,81.72
2019-03-13T14:43:36.203Z,81.18
2019-03-13T14:46:04.953Z,82.15
2019-03-13T14:48:33.648Z,81.53
2019-03-13T14:51:02.390Z,81.98
2019-03-13T14:53:31.452Z,82.53
2019-03-13T14:56:00.222Z,81.75
2019-03-13T14:58:28.894Z,82.39
2019-03-13T15:00:58.247Z,82.84
2019-03-13T15:03:27.020Z,84.29
2019-03-13T15:05:55.825Z,83.32
2019-03-13T15:08:24.521Z,84.34
2019-03-13T15:10:53.208Z,84.92
2019-03-13T15:13:22.184Z,84.48
2019-03-13T15:15:51.173Z,83.76
2019-03-13T15:18:19.894Z,84.73
2019-03-13T15:20:48.935Z,84.30
2019-03-13T15:23:17.713Z,84.87
2019-03-13T15:25:46.393Z,84.62
2019-03-13T15:28:17.416Z,84.54
2019-03-13T15:30:47.559Z,84.81
2019-03-13T15:33:16.662Z,85.18
2019-03-13T15:35:45.445Z,84.60
2019-03-13T15:38:14.158Z,85.16
2019-03-13T15:40:43.129Z,84.78
2019-03-13T15:43:12.121Z,84.97
2019-03-13T15:45:40.811Z,85.11
2019-03-13T15:48:09.801Z,84.28
2019-03-13T15:50:38.590Z,84.61
2019-03-13T15:53:07.285Z,84.28
2019-03-13T15:55:36.031Z,85.02
2019-03-13T15:58:04.805Z,84.70
2019-03-13T16:00:33.496Z,85.04
2019-03-13T16:03:02.625Z,85.30
2019-03-13T16:05:31.627Z,84.43
2019-03-13T16:08:00.687Z,85.03
2019-03-13T16:10:29.388Z,85.13
2019-03-13T16:13:03.593Z,85.36
2019-03-13T16:15:33.812Z,84.53
2019-03-13T16:18:02.609Z,84.88
2019-03-13T16:20:31.241Z,85.04
2019-03-13T16:23:00.868Z,84.90
2019-03-13T16:25:30.011Z,84.78
2019-03-13T16:27:58.842Z,84.75
2019-03-13T16:30:29.561Z,84.79
2019-03-13T16:32:58.269Z,84.26
2019-03-13T16:35:27.332Z,83.74
2019-03-13T16:37:56.258Z,84.28
2019-03-13T16:40:25.054Z,83.77
2019-03-13T16:42:53.940Z,84.22
2019-03-13T16:45:22.913Z,84.77
2019-03-13T16:47:51.978Z,85.09
2019-03-13T16:50:20.999Z,84.90
2019-03-13T16:52:49.773Z,84.98
2019-03-13T16:55:18.983Z,84.77
2019-03-13T16:57:47.810Z,84.83
2019-03-13T17:00:25.839Z,85.01
2019-03-13T17:02:54.780Z,85.03
2019-03-13T17:05:24.763Z,84.29
2019-03-13T17:07:53.616Z,84.38
2019-03-13T17:10:22.465Z,84.63
2019-03-13T17:12:51.315Z,84.34
2019-03-13T17:15:20.788Z,84.74
2019-03-13T17:17:49.542Z,84.63
2019-03-13T17:20:20.576Z,84.84
2019-03-13T17:22:49.590Z,85.23
2019-03-13T17:25:18.988Z,85.05
2019-03-13T17:27:47.950Z,85.19
2019-03-13T17:30:26.135Z,85.40
2019-03-13T17:32:55.791Z,85.71
2019-03-13T17:35:24.867Z,85.72
2019-03-13T17:37:53.992Z,85.79
2019-03-13T17:40:23.698Z,86.06
2019-03-13T17:42:52.552Z,85.98
2019-03-13T17:45:21.545Z,85.35
2019-03-13T17:47:50.930Z,85.54
2019-03-13T17:50:19.897Z,85.34
2019-03-13T17:52:49.018Z,85.56
2019-03-13T17:55:18.436Z,85.54
2019-03-13T17:57:47.288Z,85.07
2019-03-13T18:00:25.951Z,84.69
2019-03-13T18:02:54.739Z,84.77
2019-03-13T18:05:23.656Z,84.36
2019-03-13T18:07:52.838Z,84.64
2019-03-13T18:10:21.751Z,83.24
2019-03-13T18:12:50.543Z,83.48
2019-03-13T18:15:19.358Z,83.50
2019-03-13T18:17:48.131Z,84.13
2019-03-13T18:20:17.989Z,83.45
2019-03-13T18:22:46.690Z,83.73
2019-03-13T18:25:18.175Z,83.82
2019-03-13T18:27:46.238Z,83.53
2019-03-13T18:30:19.965Z,83.24
2019-03-13T18:32:48.749Z,82.77
2019-03-13T18:35:18.072Z,82.38
2019-03-13T18:37:47.493Z,83.15
2019-03-13T18:40:17.002Z,82.68
2019-03-13T18:42:45.846Z,81.85
2019-03-13T18:45:17.153Z,82.16
2019-03-13T18:47:45.914Z,82.93
2019-03-13T18:50:16.226Z,82.93
2019-03-13T18:52:44.991Z,82.95
2019-03-13T18:55:15.599Z,82.68
2019-03-13T18:57:44.275Z,83.03
2019-03-13T19:00:21.481Z,83.01
2019-03-13T19:02:50.435Z,83.81
2019-03-13T19:05:19.561Z,83.80
2019-03-13T19:07:48.251Z,83.42
2019-03-13T19:10:17.236Z,84.57
2019-03-13T19:12:46.175Z,83.92
2019-03-13T19:15:19.327Z,83.88
2019-03-13T19:17:47.435Z,83.67
2019-03-13T19:20:17.515Z,83.96
2019-03-13T19:22:46.280Z,83.84
2019-03-13T19:25:15.149Z,84.17
2019-03-13T19:27:44.042Z,84.39
2019-03-13T19:30:21.168Z,84.32
2019-03-13T19:32:51.398Z,83.70
2019-03-13T19:35:21.361Z,84.16
2019-03-13T19:37:50.193Z,84.09
2019-03-13T19:40:19.085Z,84.08
2019-03-13T19:42:48.161Z,83.57
2019-03-13T19:45:19.737Z,83.49
2019-03-13T19:47:48.496Z,83.15
2019-03-13T19:50:17.317Z,82.93
2019-03-13T19:52:47.470Z,83.69
2019-03-13T19:55:16.477Z,83.48
2019-03-13T19:57:45.228Z,83.91
2019-03-13T20:00:15.917Z,84.34
2019-03-13T20:02:44.755Z,85.33
2019-03-13T20:05:14.295Z,85.32
2019-03-13T20:07:43.369Z,84.41
2019-03-13T20:10:32.671Z,84.66
2019-03-13T20:13:01.650Z,84.43
2019-03-13T20:15:32.361Z,84.99
2019-03-13T20:18:01.152Z,85.54
2019-03-13T20:20:29.905Z,85.74
2019-03-13T20:22:59.884Z,85.51
2019-03-13T20:25:28.851Z,85.50
2019-03-13T20:27:57.816Z,85.80
2019-03-13T20:30:26.667Z,84.97
2019-03-13T20:32:58.116Z,84.58
2019-03-13T20:35:26.801Z,84.62
2019-03-13T20:37:55.836Z,84.40
2019-03-13T20:40:25.248Z,84.26
2019-03-13T20:42:54.104Z,84.47
2019-03-13T20:45:23.464Z,85.27
2019-03-13T20:47:52.261Z,85.22
2019-03-13T20:50:35.200Z,85.53
2019-03-13T20:52:52.559Z,85.36
2019-03-13T20:55:21.676Z,85.48
2019-03-13T20:57:50.732Z,84.88
2019-03-13T21:00:22.745Z,84.97
2019-03-13T21:02:52.845Z,85.30
2019-03-13T21:05:21.708Z,85.60
2019-03-13T21:07:50.448Z,85.58
2019-03-13T21:10:19.287Z,85.42
2019-03-13T21:12:48.345Z,85.33
2019-03-13T21:15:17.462Z,85.13
2019-03-13T21:17:46.189Z,85.19
2019-03-13T21:20:16.119Z,84.82
2019-03-13T21:22:45.004Z,84.74
2019-03-13T21:25:14.106Z,84.68
2019-03-13T21:27:42.809Z,84.24
2019-03-13T21:30:30.823Z,84.50
2019-03-13T21:32:59.559Z,84.38
2019-03-13T21:35:28.694Z,83.80
2019-03-13T21:37:57.435Z,83.25
2019-03-13T21:40:26.249Z,82.91
2019-03-13T21:42:55.901Z,83.17
2019-03-13T21:45:24.833Z,83.02
2019-03-13T21:47:53.996Z,82.64
2019-03-13T21:50:22.901Z,81.86
2019-03-13T21:52:51.686Z,82.54
2019-03-13T21:55:20.987Z,82.02
2019-03-13T21:57:51.999Z,81.92
2019-03-13T22:00:22.041Z,82.17
2019-03-13T22:02:51.034Z,82.30
2019-03-13T22:05:25.715Z,81.91
2019-03-13T22:07:50.492Z,81.89
2019-03-13T22:10:19.590Z,81.98
2019-03-13T22:12:48.365Z,82.15
2019-03-13T22:15:17.328Z,81.26
2019-03-13T22:17:46.414Z,81.76
2019-03-13T22:20:15.985Z,81.15
2019-03-13T22:22:44.719Z,81.49
2019-03-13T22:25:13.815Z,82.08
2019-03-13T22:27:42.626Z,82.32
2019-03-13T22:30:15.180Z,82.53
2019-03-13T22:32:43.905Z,83.45
2019-03-13T22:35:13.019Z,83.15
2019-03-13T22:37:41.775Z,82.72
2019-03-13T22:40:10.840Z,82.60
2019-03-13T22:42:39.561Z,82.94
2019-03-13T22:45:09.555Z,82.93
2019-03-13T22:47:43.034Z,82.72
2019-03-13T22:50:10.427Z,82.35
2019-03-13T22:52:39.125Z,82.58
2019-03-13T22:55:08.366Z,82.38
2019-03-13T22:57:37.434Z,81.92
2019-03-13T23:00:13.040Z,82.73
2019-03-13T23:02:41.808Z,83.33
2019-03-13T23:05:10.699Z,83.17
2019-03-13T23:07:39.379Z,83.79
2019-03-13T23:10:25.309Z,84.76
2019-03-13T23:12:54.065Z,84.53
2019-03-13T23:15:22.902Z,84.77
2019-03-13T23:17:51.593Z,85.08
2019-03-13T23:20:20.268Z,85.10
2019-03-13T23:22:48.954Z,84.25
2019-03-13T23:25:17.919Z,84.46
2019-03-13T23:27:46.598Z,85.20
2019-03-13T23:30:15.619Z,85.42
2019-03-13T23:32:44.550Z,85.37
2019-03-13T23:35:13.240Z,84.78
2019-03-13T23:37:42.169Z,85.14
2019-03-13T23:40:10.953Z,84.94
2019-03-13T23:42:39.637Z,84.91
2019-03-13T23:45:08.774Z,85.53
2019-03-13T23:47:37.744Z,85.26
2019-03-13T23:50:08.032Z,85.28
2019-03-13T23:52:36.719Z,85.05
2019-03-13T23:55:05.636Z,84.81
2019-03-13T23:57:34.310Z,84.36
